Newark, NJ (07101)

9:36 PM EDT on August 28, 2015 (GMT -0400)
Rutgers Biomedical and Health Sciences Campus | | Change Station
CLOSE
Current Station
Personal Weather Station
Location: Newark, NJ
Elevation: 144 ft
Nearby Weather Stations

Elev 144 ft 40.74 °N, 74.19 °W | Updated 10 seconds ago

Scattered Clouds
Scattered Clouds
74.0 °F
Feels Like 77 °F
N
4.3
Wind Variable Wind from WNW
Gusts 4.3 mph

Today
High -- | Low -- °F
--% Chance of Precip.
Yesterday
High -- | Low -- °F
Precip. -- in
6:19 AM 7:35 PM
Waxing Gibbous, 99% visible
Pressure 30.17 in
Visibility 10.0 miles
Clouds Few 6000 ft
Scattered Clouds 25000 ft
Heat Index 77 °F
Dew Point 58 °F
Humidity 56%
Rainfall 0.00 in
Snow Depth Not available.
UV 0.0 out of 12
Pollen 10.00 out of 12
Air Quality Not available.
Flu Activity Not available.
METAR KEWR 290051Z 31006KT 10SM FEW060 SCT250 24/12 A3017 RMK AO2 SLP215 T02440117
Pressure 30.17 in
Visibility 10.0 miles
Clouds Few 6000 ft
Scattered Clouds 25000 ft
Heat Index 77 °F
Dew Point 58 °F
Humidity 56%
Rainfall 0.00 in
Snow Depth Not available.
UV 0.0 out of 12
Pollen 10.00 out of 12
Air Quality Not available.
Flu Activity Not available.
METAR KEWR 290051Z 31006KT 10SM FEW060 SCT250 24/12 A3017 RMK AO2 SLP215 T02440117

10-Day Weather Forecast

×

Almanac

Astronomy

Aug. 28, 2015 Rise Set
Actual Time
Civil Twilight
Nautical Twilight
Astronomical Twilight
Moon
Length of Visible Light
Length of Day
Tomorrow will be .
, % of the Moon is Illuminated

Today's Extremes

State Highs State Lows

Community

WunderPhotos

Upload Photos

1,850,566 photos uploaded!

WunderBlogs® & News

Nearby

Air Quality

  Air Quality AQ Index Pollutant
Not available.

Snow Depth

Station Depth Elevation

Earthquake Activity

City Distance Mag. Time & Date
Minimum magnitude displayed is 2.5.

Coastal Water Temperatures

Place Temperature

Stations

Nearby Weather Stations

Station Location Temp. Windchill Dew Point Humidity Wind Precip. Elev Updated Type